sensor_id;sensor_type;location;lat;lon;timestamp;P1;durP1;ratioP1;P2;durP2;ratioP2
77016;SDS011;65949;53.132;17.930;2023-10-19T00:00:24;77.70;;;33.50;;
77016;SDS011;65949;53.132;17.930;2023-10-19T00:03:11;72.10;;;31.50;;
77016;SDS011;65949;53.132;17.930;2023-10-19T00:05:39;71.20;;;31.40;;
77016;SDS011;65949;53.132;17.930;2023-10-19T00:08:06;64.30;;;29.00;;
77016;SDS011;65949;53.132;17.930;2023-10-19T00:10:40;72.80;;;29.70;;
77016;SDS011;65949;53.132;17.930;2023-10-19T00:13:09;64.40;;;28.90;;
77016;SDS011;65949;53.132;17.930;2023-10-19T00:15:38;68.10;;;30.00;;
77016;SDS011;65949;53.132;17.930;2023-10-19T00:18:16;72.90;;;31.30;;
77016;SDS011;65949;53.132;17.930;2023-10-19T00:20:43;74.10;;;29.80;;
77016;SDS011;65949;53.132;17.930;2023-10-19T00:23:12;75.80;;;33.50;;
77016;SDS011;65949;53.132;17.930;2023-10-19T00:25:40;70.80;;;29.90;;
77016;SDS011;65949;53.132;17.930;2023-10-19T00:28:10;75.00;;;29.70;;
77016;SDS011;65949;53.132;17.930;2023-10-19T00:30:41;66.50;;;29.70;;
77016;SDS011;65949;53.132;17.930;2023-10-19T00:33:10;69.60;;;29.50;;
77016;SDS011;65949;53.132;17.930;2023-10-19T00:35:43;65.90;;;27.60;;
77016;SDS011;65949;53.132;17.930;2023-10-19T00:38:29;68.50;;;27.40;;
77016;SDS011;65949;53.132;17.930;2023-10-19T00:41:01;64.30;;;27.70;;
77016;SDS011;65949;53.132;17.930;2023-10-19T00:43:33;63.50;;;26.70;;
77016;SDS011;65949;53.132;17.930;2023-10-19T00:46:03;63.60;;;27.50;;
77016;SDS011;65949;53.132;17.930;2023-10-19T00:48:33;68.50;;;29.60;;
77016;SDS011;65949;53.132;17.930;2023-10-19T00:51:01;72.10;;;30.50;;
77016;SDS011;65949;53.132;17.930;2023-10-19T00:53:53;74.50;;;30.50;;
77016;SDS011;65949;53.132;17.930;2023-10-19T00:56:22;72.40;;;29.80;;
77016;SDS011;65949;53.132;17.930;2023-10-19T00:58:50;72.50;;;31.50;;
77016;SDS011;65949;53.132;17.930;2023-10-19T01:01:22;72.40;;;30.30;;
77016;SDS011;65949;53.132;17.930;2023-10-19T01:03:51;72.20;;;28.20;;
77016;SDS011;65949;53.132;17.930;2023-10-19T01:06:24;68.70;;;28.30;;
77016;SDS011;65949;53.132;17.930;2023-10-19T01:08:53;79.40;;;32.40;;
77016;SDS011;65949;53.132;17.930;2023-10-19T01:11:19;76.60;;;31.10;;
77016;SDS011;65949;53.132;17.930;2023-10-19T01:13:47;74.20;;;31.40;;
77016;SDS011;65949;53.132;17.930;2023-10-19T01:16:14;81.30;;;32.40;;
77016;SDS011;65949;53.132;17.930;2023-10-19T01:18:48;74.70;;;30.30;;
77016;SDS011;65949;53.132;17.930;2023-10-19T01:21:21;72.30;;;31.10;;
77016;SDS011;65949;53.132;17.930;2023-10-19T01:23:51;84.60;;;34.70;;
77016;SDS011;65949;53.132;17.930;2023-10-19T01:26:19;91.90;;;34.60;;
77016;SDS011;65949;53.132;17.930;2023-10-19T01:28:52;93.20;;;33.90;;
77016;SDS011;65949;53.132;17.930;2023-10-19T01:31:28;83.70;;;33.40;;
77016;SDS011;65949;53.132;17.930;2023-10-19T01:33:54;80.30;;;32.00;;
77016;SDS011;65949;53.132;17.930;2023-10-19T01:36:25;76.00;;;31.20;;
77016;SDS011;65949;53.132;17.930;2023-10-19T01:38:56;78.00;;;30.60;;
77016;SDS011;65949;53.132;17.930;2023-10-19T01:41:27;74.40;;;27.90;;
77016;SDS011;65949;53.132;17.930;2023-10-19T01:43:57;71.30;;;28.60;;
77016;SDS011;65949;53.132;17.930;2023-10-19T01:46:30;74.40;;;28.90;;
77016;SDS011;65949;53.132;17.930;2023-10-19T01:49:00;76.40;;;29.80;;
77016;SDS011;65949;53.132;17.930;2023-10-19T01:51:30;64.70;;;25.10;;
77016;SDS011;65949;53.132;17.930;2023-10-19T01:54:05;64.20;;;26.30;;
77016;SDS011;65949;53.132;17.930;2023-10-19T01:56:33;67.10;;;27.00;;
77016;SDS011;65949;53.132;17.930;2023-10-19T01:59:02;60.00;;;23.30;;
77016;SDS011;65949;53.132;17.930;2023-10-19T02:01:35;56.10;;;22.40;;
77016;SDS011;65949;53.132;17.930;2023-10-19T02:04:04;58.90;;;23.20;;
77016;SDS011;65949;53.132;17.930;2023-10-19T02:06:32;57.20;;;23.20;;
77016;SDS011;65949;53.132;17.930;2023-10-19T02:09:07;58.70;;;26.00;;
77016;SDS011;65949;53.132;17.930;2023-10-19T02:11:49;54.80;;;23.70;;
77016;SDS011;65949;53.132;17.930;2023-10-19T02:14:20;61.40;;;24.80;;
77016;SDS011;65949;53.132;17.930;2023-10-19T02:16:47;76.80;;;29.10;;
77016;SDS011;65949;53.132;17.930;2023-10-19T02:19:17;69.10;;;29.00;;
77016;SDS011;65949;53.132;17.930;2023-10-19T02:21:47;70.50;;;28.40;;
77016;SDS011;65949;53.132;17.930;2023-10-19T02:24:14;62.00;;;25.00;;
77016;SDS011;65949;53.132;17.930;2023-10-19T02:26:42;62.10;;;26.00;;
77016;SDS011;65949;53.132;17.930;2023-10-19T02:29:10;53.40;;;22.70;;
77016;SDS011;65949;53.132;17.930;2023-10-19T02:31:37;49.00;;;21.20;;
77016;SDS011;65949;53.132;17.930;2023-10-19T02:34:04;44.90;;;18.10;;
77016;SDS011;65949;53.132;17.930;2023-10-19T02:36:32;42.10;;;19.20;;
77016;SDS011;65949;53.132;17.930;2023-10-19T02:39:01;46.70;;;20.40;;
77016;SDS011;65949;53.132;17.930;2023-10-19T02:41:35;53.30;;;21.90;;
77016;SDS011;65949;53.132;17.930;2023-10-19T02:44:12;47.50;;;22.00;;
77016;SDS011;65949;53.132;17.930;2023-10-19T02:46:42;51.90;;;23.50;;
77016;SDS011;65949;53.132;17.930;2023-10-19T02:49:11;56.70;;;26.80;;
77016;SDS011;65949;53.132;17.930;2023-10-19T02:51:42;58.20;;;29.20;;
77016;SDS011;65949;53.132;17.930;2023-10-19T02:54:14;44.70;;;21.90;;
77016;SDS011;65949;53.132;17.930;2023-10-19T02:56:52;43.10;;;20.50;;
77016;SDS011;65949;53.132;17.930;2023-10-19T02:59:20;39.80;;;20.80;;
77016;SDS011;65949;53.132;17.930;2023-10-19T03:01:52;36.40;;;17.30;;
77016;SDS011;65949;53.132;17.930;2023-10-19T03:04:39;32.40;;;15.40;;
77016;SDS011;65949;53.132;17.930;2023-10-19T03:07:07;31.90;;;14.90;;
77016;SDS011;65949;53.132;17.930;2023-10-19T03:09:34;30.70;;;15.40;;
77016;SDS011;65949;53.132;17.930;2023-10-19T03:12:03;35.00;;;19.20;;
77016;SDS011;65949;53.132;17.930;2023-10-19T03:14:35;40.30;;;22.50;;
77016;SDS011;65949;53.132;17.930;2023-10-19T03:17:03;56.50;;;31.80;;
77016;SDS011;65949;53.132;17.930;2023-10-19T03:19:31;55.00;;;30.00;;
77016;SDS011;65949;53.132;17.930;2023-10-19T03:21:58;41.00;;;21.40;;
77016;SDS011;65949;53.132;17.930;2023-10-19T03:24:27;38.30;;;20.60;;
77016;SDS011;65949;53.132;17.930;2023-10-19T03:27:06;44.30;;;19.50;;
77016;SDS011;65949;53.132;17.930;2023-10-19T03:29:51;34.10;;;15.70;;
77016;SDS011;65949;53.132;17.930;2023-10-19T03:32:22;34.20;;;15.80;;
77016;SDS011;65949;53.132;17.930;2023-10-19T03:34:53;36.00;;;16.20;;
77016;SDS011;65949;53.132;17.930;2023-10-19T03:37:25;38.50;;;16.80;;
77016;SDS011;65949;53.132;17.930;2023-10-19T03:39:56;46.30;;;19.50;;
77016;SDS011;65949;53.132;17.930;2023-10-19T03:42:23;38.50;;;16.70;;
77016;SDS011;65949;53.132;17.930;2023-10-19T03:44:56;36.30;;;16.40;;
77016;SDS011;65949;53.132;17.930;2023-10-19T03:47:23;32.50;;;15.90;;
77016;SDS011;65949;53.132;17.930;2023-10-19T03:50:00;33.80;;;15.80;;
77016;SDS011;65949;53.132;17.930;2023-10-19T03:52:36;35.70;;;16.70;;
77016;SDS011;65949;53.132;17.930;2023-10-19T03:55:06;29.50;;;14.50;;
77016;SDS011;65949;53.132;17.930;2023-10-19T03:57:37;29.40;;;13.90;;
77016;SDS011;65949;53.132;17.930;2023-10-19T04:00:13;33.40;;;16.60;;
77016;SDS011;65949;53.132;17.930;2023-10-19T04:02:51;31.70;;;17.20;;
77016;SDS011;65949;53.132;17.930;2023-10-19T04:05:21;34.40;;;16.70;;
77016;SDS011;65949;53.132;17.930;2023-10-19T04:07:52;37.20;;;17.90;;
77016;SDS011;65949;53.132;17.930;2023-10-19T04:10:24;31.20;;;16.10;;
77016;SDS011;65949;53.132;17.930;2023-10-19T04:13:05;32.90;;;16.30;;
77016;SDS011;65949;53.132;17.930;2023-10-19T04:15:36;34.60;;;16.60;;
77016;SDS011;65949;53.132;17.930;2023-10-19T04:18:03;34.70;;;18.00;;
77016;SDS011;65949;53.132;17.930;2023-10-19T04:20:38;43.10;;;19.90;;
77016;SDS011;65949;53.132;17.930;2023-10-19T04:23:14;39.80;;;20.00;;
77016;SDS011;65949;53.132;17.930;2023-10-19T04:25:41;42.20;;;21.10;;
77016;SDS011;65949;53.132;17.930;2023-10-19T04:28:08;49.20;;;22.50;;
77016;SDS011;65949;53.132;17.930;2023-10-19T04:30:35;42.20;;;20.20;;
77016;SDS011;65949;53.132;17.930;2023-10-19T04:33:04;45.30;;;22.70;;
77016;SDS011;65949;53.132;17.930;2023-10-19T04:35:38;47.60;;;22.50;;
77016;SDS011;65949;53.132;17.930;2023-10-19T04:38:07;39.90;;;20.80;;
77016;SDS011;65949;53.132;17.930;2023-10-19T04:40:34;44.20;;;21.20;;
77016;SDS011;65949;53.132;17.930;2023-10-19T04:43:02;47.90;;;23.20;;
77016;SDS011;65949;53.132;17.930;2023-10-19T04:45:32;49.50;;;25.40;;
77016;SDS011;65949;53.132;17.930;2023-10-19T04:47:59;58.70;;;28.30;;
77016;SDS011;65949;53.132;17.930;2023-10-19T04:50:26;74.50;;;33.60;;
77016;SDS011;65949;53.132;17.930;2023-10-19T04:52:52;77.70;;;35.30;;
77016;SDS011;65949;53.132;17.930;2023-10-19T04:55:19;59.90;;;28.20;;
77016;SDS011;65949;53.132;17.930;2023-10-19T04:57:45;68.90;;;31.50;;
77016;SDS011;65949;53.132;17.930;2023-10-19T05:00:13;66.10;;;31.20;;
77016;SDS011;65949;53.132;17.930;2023-10-19T05:02:41;54.80;;;25.20;;
77016;SDS011;65949;53.132;17.930;2023-10-19T05:05:08;45.40;;;21.80;;
77016;SDS011;65949;53.132;17.930;2023-10-19T05:07:35;48.10;;;22.90;;
77016;SDS011;65949;53.132;17.930;2023-10-19T05:10:02;49.60;;;25.70;;
77016;SDS011;65949;53.132;17.930;2023-10-19T05:12:31;53.00;;;25.10;;
77016;SDS011;65949;53.132;17.930;2023-10-19T05:14:58;52.10;;;24.90;;
77016;SDS011;65949;53.132;17.930;2023-10-19T05:17:25;50.40;;;24.00;;
77016;SDS011;65949;53.132;17.930;2023-10-19T05:19:51;46.30;;;22.80;;
77016;SDS011;65949;53.132;17.930;2023-10-19T05:22:18;48.60;;;23.80;;
77016;SDS011;65949;53.132;17.930;2023-10-19T05:24:44;45.20;;;22.70;;
77016;SDS011;65949;53.132;17.930;2023-10-19T05:27:12;46.10;;;22.90;;
77016;SDS011;65949;53.132;17.930;2023-10-19T05:29:38;43.80;;;20.70;;
77016;SDS011;65949;53.132;17.930;2023-10-19T05:32:06;40.40;;;21.20;;
77016;SDS011;65949;53.132;17.930;2023-10-19T05:34:33;42.90;;;20.00;;
77016;SDS011;65949;53.132;17.930;2023-10-19T05:37:01;39.20;;;18.40;;
77016;SDS011;65949;53.132;17.930;2023-10-19T05:39:28;41.60;;;21.30;;
77016;SDS011;65949;53.132;17.930;2023-10-19T05:41:57;42.20;;;21.00;;
77016;SDS011;65949;53.132;17.930;2023-10-19T05:44:28;47.30;;;21.10;;
77016;SDS011;65949;53.132;17.930;2023-10-19T05:46:56;44.10;;;21.60;;
77016;SDS011;65949;53.132;17.930;2023-10-19T05:49:24;52.60;;;22.90;;
77016;SDS011;65949;53.132;17.930;2023-10-19T05:51:51;45.00;;;21.00;;
77016;SDS011;65949;53.132;17.930;2023-10-19T05:54:18;48.40;;;22.00;;
77016;SDS011;65949;53.132;17.930;2023-10-19T05:56:45;42.90;;;20.70;;
77016;SDS011;65949;53.132;17.930;2023-10-19T05:59:12;37.60;;;19.60;;
77016;SDS011;65949;53.132;17.930;2023-10-19T06:01:39;41.50;;;20.80;;
77016;SDS011;65949;53.132;17.930;2023-10-19T06:04:07;35.00;;;18.20;;
77016;SDS011;65949;53.132;17.930;2023-10-19T06:06:34;42.20;;;19.70;;
77016;SDS011;65949;53.132;17.930;2023-10-19T06:09:02;41.30;;;19.00;;
77016;SDS011;65949;53.132;17.930;2023-10-19T06:11:28;38.80;;;20.40;;
77016;SDS011;65949;53.132;17.930;2023-10-19T06:13:58;39.20;;;19.20;;
77016;SDS011;65949;53.132;17.930;2023-10-19T06:16:26;39.40;;;19.80;;
77016;SDS011;65949;53.132;17.930;2023-10-19T06:18:54;38.60;;;18.40;;
77016;SDS011;65949;53.132;17.930;2023-10-19T06:21:21;37.50;;;17.60;;
77016;SDS011;65949;53.132;17.930;2023-10-19T06:23:47;38.90;;;18.30;;
77016;SDS011;65949;53.132;17.930;2023-10-19T06:26:14;39.00;;;18.80;;
77016;SDS011;65949;53.132;17.930;2023-10-19T06:28:41;34.10;;;17.70;;
77016;SDS011;65949;53.132;17.930;2023-10-19T06:31:08;42.90;;;20.30;;
77016;SDS011;65949;53.132;17.930;2023-10-19T06:33:35;43.50;;;22.50;;
77016;SDS011;65949;53.132;17.930;2023-10-19T06:36:02;42.20;;;21.40;;
77016;SDS011;65949;53.132;17.930;2023-10-19T06:38:29;42.50;;;20.70;;
77016;SDS011;65949;53.132;17.930;2023-10-19T06:40:57;41.70;;;19.10;;
77016;SDS011;65949;53.132;17.930;2023-10-19T06:43:25;47.60;;;20.90;;
77016;SDS011;65949;53.132;17.930;2023-10-19T06:45:55;37.10;;;18.80;;
77016;SDS011;65949;53.132;17.930;2023-10-19T06:48:22;39.90;;;18.80;;
77016;SDS011;65949;53.132;17.930;2023-10-19T06:50:48;39.50;;;17.90;;
77016;SDS011;65949;53.132;17.930;2023-10-19T06:53:16;38.50;;;18.10;;
77016;SDS011;65949;53.132;17.930;2023-10-19T06:55:43;39.00;;;18.90;;
77016;SDS011;65949;53.132;17.930;2023-10-19T06:58:10;37.40;;;19.50;;
77016;SDS011;65949;53.132;17.930;2023-10-19T07:00:38;37.90;;;19.60;;
77016;SDS011;65949;53.132;17.930;2023-10-19T07:03:08;38.10;;;18.90;;
77016;SDS011;65949;53.132;17.930;2023-10-19T07:05:36;39.60;;;19.00;;
77016;SDS011;65949;53.132;17.930;2023-10-19T07:08:03;38.50;;;18.70;;
77016;SDS011;65949;53.132;17.930;2023-10-19T07:10:33;36.20;;;19.30;;
77016;SDS011;65949;53.132;17.930;2023-10-19T07:13:01;42.70;;;20.30;;
77016;SDS011;65949;53.132;17.930;2023-10-19T07:15:28;43.20;;;19.20;;
77016;SDS011;65949;53.132;17.930;2023-10-19T07:17:56;42.90;;;20.80;;
77016;SDS011;65949;53.132;17.930;2023-10-19T07:20:22;60.00;;;26.50;;
77016;SDS011;65949;53.132;17.930;2023-10-19T07:22:59;54.60;;;21.40;;
77016;SDS011;65949;53.132;17.930;2023-10-19T07:25:36;32.90;;;17.00;;
77016;SDS011;65949;53.132;17.930;2023-10-19T07:28:09;37.00;;;17.20;;
77016;SDS011;65949;53.132;17.930;2023-10-19T07:30:37;42.00;;;17.30;;
77016;SDS011;65949;53.132;17.930;2023-10-19T07:33:03;43.80;;;18.60;;
77016;SDS011;65949;53.132;17.930;2023-10-19T07:35:35;42.40;;;18.80;;
77016;SDS011;65949;53.132;17.930;2023-10-19T07:38:05;40.70;;;17.60;;
77016;SDS011;65949;53.132;17.930;2023-10-19T07:40:34;46.40;;;20.10;;
77016;SDS011;65949;53.132;17.930;2023-10-19T07:43:01;44.60;;;19.30;;
77016;SDS011;65949;53.132;17.930;2023-10-19T07:45:30;51.30;;;22.80;;
77016;SDS011;65949;53.132;17.930;2023-10-19T07:47:58;39.20;;;19.10;;
77016;SDS011;65949;53.132;17.930;2023-10-19T07:50:36;44.50;;;20.40;;
77016;SDS011;65949;53.132;17.930;2023-10-19T07:53:04;37.60;;;17.50;;
77016;SDS011;65949;53.132;17.930;2023-10-19T07:55:31;35.60;;;17.00;;
77016;SDS011;65949;53.132;17.930;2023-10-19T07:58:00;37.90;;;18.60;;
77016;SDS011;65949;53.132;17.930;2023-10-19T08:00:29;31.80;;;15.80;;
77016;SDS011;65949;53.132;17.930;2023-10-19T08:02:56;28.50;;;15.60;;
77016;SDS011;65949;53.132;17.930;2023-10-19T08:05:23;28.60;;;14.70;;
77016;SDS011;65949;53.132;17.930;2023-10-19T08:07:49;28.80;;;16.10;;
77016;SDS011;65949;53.132;17.930;2023-10-19T08:10:16;30.20;;;15.00;;
77016;SDS011;65949;53.132;17.930;2023-10-19T08:12:46;30.50;;;15.40;;
77016;SDS011;65949;53.132;17.930;2023-10-19T08:15:14;29.60;;;16.60;;
77016;SDS011;65949;53.132;17.930;2023-10-19T08:17:42;32.10;;;15.90;;
77016;SDS011;65949;53.132;17.930;2023-10-19T08:20:21;25.70;;;14.10;;
77016;SDS011;65949;53.132;17.930;2023-10-19T08:22:58;36.50;;;16.00;;
77016;SDS011;65949;53.132;17.930;2023-10-19T08:25:27;28.90;;;13.90;;
77016;SDS011;65949;53.132;17.930;2023-10-19T08:27:54;32.30;;;15.20;;
77016;SDS011;65949;53.132;17.930;2023-10-19T08:30:23;29.00;;;13.50;;
77016;SDS011;65949;53.132;17.930;2023-10-19T08:32:52;32.40;;;14.50;;
77016;SDS011;65949;53.132;17.930;2023-10-19T08:35:20;31.30;;;14.30;;
77016;SDS011;65949;53.132;17.930;2023-10-19T08:37:51;29.00;;;13.20;;
77016;SDS011;65949;53.132;17.930;2023-10-19T08:40:19;30.60;;;15.40;;
77016;SDS011;65949;53.132;17.930;2023-10-19T08:42:47;26.70;;;12.80;;
77016;SDS011;65949;53.132;17.930;2023-10-19T08:45:14;33.40;;;15.30;;
77016;SDS011;65949;53.132;17.930;2023-10-19T08:50:24;29.40;;;14.30;;
77016;SDS011;65949;53.132;17.930;2023-10-19T08:52:53;30.20;;;15.30;;
77016;SDS011;65949;53.132;17.930;2023-10-19T08:55:21;31.30;;;14.60;;
77016;SDS011;65949;53.132;17.930;2023-10-19T08:57:48;27.10;;;12.90;;
77016;SDS011;65949;53.132;17.930;2023-10-19T09:00:16;30.80;;;13.90;;
77016;SDS011;65949;53.132;17.930;2023-10-19T09:02:45;29.90;;;13.80;;
77016;SDS011;65949;53.132;17.930;2023-10-19T09:05:12;31.60;;;13.80;;
77016;SDS011;65949;53.132;17.930;2023-10-19T09:07:54;26.80;;;11.80;;
77016;SDS011;65949;53.132;17.930;2023-10-19T09:10:22;28.40;;;13.60;;
77016;SDS011;65949;53.132;17.930;2023-10-19T09:12:59;28.20;;;14.20;;
77016;SDS011;65949;53.132;17.930;2023-10-19T09:15:31;28.90;;;13.40;;
77016;SDS011;65949;53.132;17.930;2023-10-19T09:18:11;46.40;;;15.40;;
77016;SDS011;65949;53.132;17.930;2023-10-19T09:20:40;44.00;;;15.20;;
77016;SDS011;65949;53.132;17.930;2023-10-19T09:23:08;58.50;;;17.10;;
77016;SDS011;65949;53.132;17.930;2023-10-19T09:25:35;44.80;;;16.20;;
77016;SDS011;65949;53.132;17.930;2023-10-19T09:28:02;36.60;;;13.80;;
77016;SDS011;65949;53.132;17.930;2023-10-19T09:30:29;27.70;;;12.80;;
77016;SDS011;65949;53.132;17.930;2023-10-19T09:32:57;27.10;;;11.90;;
77016;SDS011;65949;53.132;17.930;2023-10-19T09:35:25;24.80;;;11.00;;
77016;SDS011;65949;53.132;17.930;2023-10-19T09:37:54;26.10;;;12.20;;
77016;SDS011;65949;53.132;17.930;2023-10-19T09:40:21;19.70;;;9.90;;
77016;SDS011;65949;53.132;17.930;2023-10-19T09:42:49;23.80;;;11.70;;
77016;SDS011;65949;53.132;17.930;2023-10-19T09:45:20;27.90;;;12.00;;
77016;SDS011;65949;53.132;17.930;2023-10-19T09:47:50;24.40;;;11.10;;
77016;SDS011;65949;53.132;17.930;2023-10-19T09:50:17;26.20;;;12.10;;
77016;SDS011;65949;53.132;17.930;2023-10-19T09:52:44;25.60;;;11.90;;
77016;SDS011;65949;53.132;17.930;2023-10-19T09:55:32;29.90;;;11.90;;
77016;SDS011;65949;53.132;17.930;2023-10-19T09:58:17;23.10;;;11.20;;
77016;SDS011;65949;53.132;17.930;2023-10-19T10:00:48;28.50;;;12.50;;
77016;SDS011;65949;53.132;17.930;2023-10-19T10:06:28;29.70;;;13.00;;
77016;SDS011;65949;53.132;17.930;2023-10-19T10:08:58;28.60;;;12.80;;
77016;SDS011;65949;53.132;17.930;2023-10-19T10:11:27;29.00;;;12.40;;
77016;SDS011;65949;53.132;17.930;2023-10-19T10:13:55;26.70;;;12.90;;
77016;SDS011;65949;53.132;17.930;2023-10-19T10:16:26;18.80;;;8.40;;
77016;SDS011;65949;53.132;17.930;2023-10-19T10:18:58;22.10;;;10.50;;
77016;SDS011;65949;53.132;17.930;2023-10-19T10:21:30;29.80;;;12.10;;
77016;SDS011;65949;53.132;17.930;2023-10-19T10:23:57;26.30;;;11.80;;
77016;SDS011;65949;53.132;17.930;2023-10-19T10:26:27;25.50;;;12.10;;
77016;SDS011;65949;53.132;17.930;2023-10-19T10:29:20;24.80;;;10.50;;
77016;SDS011;65949;53.132;17.930;2023-10-19T10:31:50;21.10;;;11.60;;
77016;SDS011;65949;53.132;17.930;2023-10-19T10:37:06;25.50;;;12.40;;
77016;SDS011;65949;53.132;17.930;2023-10-19T10:39:38;21.80;;;10.50;;
77016;SDS011;65949;53.132;17.930;2023-10-19T10:42:07;19.90;;;10.10;;
77016;SDS011;65949;53.132;17.930;2023-10-19T10:44:35;22.20;;;11.90;;
77016;SDS011;65949;53.132;17.930;2023-10-19T10:47:16;17.10;;;8.50;;
77016;SDS011;65949;53.132;17.930;2023-10-19T10:49:57;18.10;;;10.40;;
77016;SDS011;65949;53.132;17.930;2023-10-19T10:54:52;22.70;;;11.00;;
77016;SDS011;65949;53.132;17.930;2023-10-19T10:57:19;21.50;;;10.80;;
77016;SDS011;65949;53.132;17.930;2023-10-19T10:59:46;18.80;;;8.60;;
77016;SDS011;65949;53.132;17.930;2023-10-19T11:02:19;15.90;;;9.10;;
77016;SDS011;65949;53.132;17.930;2023-10-19T11:04:48;20.70;;;10.40;;
77016;SDS011;65949;53.132;17.930;2023-10-19T11:07:18;20.10;;;10.10;;
77016;SDS011;65949;53.132;17.930;2023-10-19T11:09:46;25.70;;;12.30;;
77016;SDS011;65949;53.132;17.930;2023-10-19T11:12:14;22.00;;;11.10;;
77016;SDS011;65949;53.132;17.930;2023-10-19T11:14:58;24.90;;;11.40;;
77016;SDS011;65949;53.132;17.930;2023-10-19T11:17:28;21.40;;;11.10;;
77016;SDS011;65949;53.132;17.930;2023-10-19T11:19:59;24.00;;;12.70;;
77016;SDS011;65949;53.132;17.930;2023-10-19T11:22:26;28.50;;;12.60;;
77016;SDS011;65949;53.132;17.930;2023-10-19T11:24:53;26.40;;;12.80;;
77016;SDS011;65949;53.132;17.930;2023-10-19T11:27:24;23.50;;;11.40;;
77016;SDS011;65949;53.132;17.930;2023-10-19T11:29:53;20.80;;;11.20;;
77016;SDS011;65949;53.132;17.930;2023-10-19T11:32:24;25.90;;;12.50;;
77016;SDS011;65949;53.132;17.930;2023-10-19T11:34:52;26.10;;;12.40;;
77016;SDS011;65949;53.132;17.930;2023-10-19T11:37:20;21.30;;;11.20;;
77016;SDS011;65949;53.132;17.930;2023-10-19T11:39:47;21.00;;;11.30;;
77016;SDS011;65949;53.132;17.930;2023-10-19T11:42:17;28.20;;;10.70;;
77016;SDS011;65949;53.132;17.930;2023-10-19T11:44:44;19.60;;;9.60;;
77016;SDS011;65949;53.132;17.930;2023-10-19T11:47:12;16.40;;;8.60;;
77016;SDS011;65949;53.132;17.930;2023-10-19T11:49:39;19.20;;;10.10;;
77016;SDS011;65949;53.132;17.930;2023-10-19T11:52:06;25.60;;;12.80;;
77016;SDS011;65949;53.132;17.930;2023-10-19T11:54:36;22.90;;;11.20;;
77016;SDS011;65949;53.132;17.930;2023-10-19T11:57:03;19.20;;;10.10;;
77016;SDS011;65949;53.132;17.930;2023-10-19T11:59:29;22.00;;;10.00;;
77016;SDS011;65949;53.132;17.930;2023-10-19T12:01:56;21.90;;;10.90;;
77016;SDS011;65949;53.132;17.930;2023-10-19T12:04:24;33.80;;;11.90;;
77016;SDS011;65949;53.132;17.930;2023-10-19T12:06:52;24.00;;;10.50;;
77016;SDS011;65949;53.132;17.930;2023-10-19T12:09:19;21.30;;;9.40;;
77016;SDS011;65949;53.132;17.930;2023-10-19T12:11:50;22.40;;;9.90;;
77016;SDS011;65949;53.132;17.930;2023-10-19T12:14:20;19.00;;;9.10;;
77016;SDS011;65949;53.132;17.930;2023-10-19T12:16:47;23.80;;;10.60;;
77016;SDS011;65949;53.132;17.930;2023-10-19T12:19:14;22.20;;;10.00;;
77016;SDS011;65949;53.132;17.930;2023-10-19T12:21:41;20.30;;;10.00;;
77016;SDS011;65949;53.132;17.930;2023-10-19T12:24:08;18.60;;;9.10;;
77016;SDS011;65949;53.132;17.930;2023-10-19T12:26:35;20.80;;;9.50;;
77016;SDS011;65949;53.132;17.930;2023-10-19T12:29:01;21.70;;;10.00;;
77016;SDS011;65949;53.132;17.930;2023-10-19T12:31:31;17.80;;;9.10;;
77016;SDS011;65949;53.132;17.930;2023-10-19T12:33:58;23.20;;;10.00;;
77016;SDS011;65949;53.132;17.930;2023-10-19T12:36:25;22.00;;;10.90;;
77016;SDS011;65949;53.132;17.930;2023-10-19T12:38:54;22.60;;;11.40;;
77016;SDS011;65949;53.132;17.930;2023-10-19T12:41:21;20.70;;;11.20;;
77016;SDS011;65949;53.132;17.930;2023-10-19T12:43:48;21.80;;;11.20;;
77016;SDS011;65949;53.132;17.930;2023-10-19T12:46:18;24.90;;;12.20;;
77016;SDS011;65949;53.132;17.930;2023-10-19T12:48:45;20.00;;;10.10;;
77016;SDS011;65949;53.132;17.930;2023-10-19T12:51:15;26.80;;;11.80;;
77016;SDS011;65949;53.132;17.930;2023-10-19T12:53:44;24.00;;;8.90;;
77016;SDS011;65949;53.132;17.930;2023-10-19T12:56:12;16.60;;;8.20;;
77016;SDS011;65949;53.132;17.930;2023-10-19T12:58:39;18.80;;;9.50;;
77016;SDS011;65949;53.132;17.930;2023-10-19T13:01:05;16.50;;;9.10;;
77016;SDS011;65949;53.132;17.930;2023-10-19T13:03:32;19.10;;;9.80;;
77016;SDS011;65949;53.132;17.930;2023-10-19T13:05:59;18.20;;;9.90;;
77016;SDS011;65949;53.132;17.930;2023-10-19T13:08:30;14.40;;;7.50;;
77016;SDS011;65949;53.132;17.930;2023-10-19T13:10:56;20.70;;;9.40;;
77016;SDS011;65949;53.132;17.930;2023-10-19T13:13:23;20.70;;;10.10;;
77016;SDS011;65949;53.132;17.930;2023-10-19T13:15:50;17.90;;;9.90;;
77016;SDS011;65949;53.132;17.930;2023-10-19T13:18:17;21.10;;;9.80;;
77016;SDS011;65949;53.132;17.930;2023-10-19T13:20:46;16.30;;;8.00;;
77016;SDS011;65949;53.132;17.930;2023-10-19T13:23:14;21.20;;;10.40;;
77016;SDS011;65949;53.132;17.930;2023-10-19T13:25:48;19.20;;;9.40;;
77016;SDS011;65949;53.132;17.930;2023-10-19T13:28:17;18.20;;;9.40;;
77016;SDS011;65949;53.132;17.930;2023-10-19T13:30:51;17.90;;;8.00;;
77016;SDS011;65949;53.132;17.930;2023-10-19T13:33:20;15.30;;;8.00;;
77016;SDS011;65949;53.132;17.930;2023-10-19T13:35:47;19.70;;;9.10;;
77016;SDS011;65949;53.132;17.930;2023-10-19T13:38:15;15.90;;;8.50;;
77016;SDS011;65949;53.132;17.930;2023-10-19T13:40:43;21.80;;;11.70;;
77016;SDS011;65949;53.132;17.930;2023-10-19T13:43:13;18.20;;;8.40;;
77016;SDS011;65949;53.132;17.930;2023-10-19T13:45:41;16.60;;;6.80;;
77016;SDS011;65949;53.132;17.930;2023-10-19T13:48:09;19.60;;;9.30;;
77016;SDS011;65949;53.132;17.930;2023-10-19T13:50:41;21.40;;;9.90;;
77016;SDS011;65949;53.132;17.930;2023-10-19T13:53:10;24.20;;;13.00;;
77016;SDS011;65949;53.132;17.930;2023-10-19T13:55:37;15.70;;;7.40;;
77016;SDS011;65949;53.132;17.930;2023-10-19T13:58:04;14.50;;;7.40;;
77016;SDS011;65949;53.132;17.930;2023-10-19T14:00:34;17.20;;;8.70;;
77016;SDS011;65949;53.132;17.930;2023-10-19T14:03:02;16.50;;;8.90;;
77016;SDS011;65949;53.132;17.930;2023-10-19T14:08:14;17.30;;;8.30;;
77016;SDS011;65949;53.132;17.930;2023-10-19T14:10:42;14.10;;;7.00;;
77016;SDS011;65949;53.132;17.930;2023-10-19T14:13:09;15.40;;;7.70;;
77016;SDS011;65949;53.132;17.930;2023-10-19T14:15:41;13.80;;;7.90;;
77016;SDS011;65949;53.132;17.930;2023-10-19T14:18:08;17.20;;;9.60;;
77016;SDS011;65949;53.132;17.930;2023-10-19T14:20:36;18.20;;;8.30;;
77016;SDS011;65949;53.132;17.930;2023-10-19T14:23:05;15.90;;;7.50;;
77016;SDS011;65949;53.132;17.930;2023-10-19T14:25:36;16.40;;;8.20;;
77016;SDS011;65949;53.132;17.930;2023-10-19T14:28:05;17.60;;;8.20;;
77016;SDS011;65949;53.132;17.930;2023-10-19T14:30:33;14.70;;;7.60;;
77016;SDS011;65949;53.132;17.930;2023-10-19T14:33:00;13.40;;;6.90;;
77016;SDS011;65949;53.132;17.930;2023-10-19T14:35:27;17.40;;;6.90;;
77016;SDS011;65949;53.132;17.930;2023-10-19T14:37:55;14.40;;;6.40;;